Yalaha, Florida
Current Conditions -  °F | °C
As of 8:53 AM on Friday 19 Dec 2014 (Local Time) from KLEE Reporting Station
Clear Clear  
Wind Chill: 57°   Ceiling: Unl
Heat Index: 57°   Visibility: 10mi
Dew Point: 49°   Wind: 3mph
Humidity: 74%   Direction: 350°N
Pressure: 30.17"   Gusts: NA
Location:  28.75°N, 81.82°W
Report Text: KLEE 191353Z 35003KT 10SM CLR 14/09 A3017 RMK AO2 SLP214 T01390094
Loading
Personal Weather Stations






























Interactive Weather Map New forecast layout! Learn more

10-Day Weather Forecast

Advertisements
Track Severe Weather on mobile